Time;durP1;ratioP1;P1;durP2;ratioP2;P2;SDS_P1;SDS_P2;PMS_P1;PMS_P2;Temp;Humidity;BMP_temperature;BMP_pressure;BME280_temperature;BME280_humidity;BME280_pressure;Samples;Min_cycle;Max_cycle;Signal;HPM_P1;HPM_P2
2023/11/28 00:01:35;;;;;;;17.23;13.47;;;6.80;99.90;;;;;;5074776;28;20036;-75
2023/11/28 00:04:00;;;;;;;19.30;13.90;;;6.70;99.90;;;;;;5074770;28;20055;-74
2023/11/28 00:06:26;;;;;;;18.63;14.07;;;6.80;99.90;;;;;;5074682;28;20115;-75
2023/11/28 00:08:52;;;;;;;19.33;14.27;;;6.80;99.90;;;;;;5074445;28;20066;-74
2023/11/28 00:11:19;;;;;;;20.00;14.17;;;6.80;99.90;;;;;;5074627;28;20032;-75
2023/11/28 00:13:45;;;;;;;20.47;14.93;;;6.80;99.90;;;;;;5074337;28;20128;-74
2023/11/28 00:16:12;;;;;;;21.23;15.47;;;6.80;99.90;;;;;;5074346;28;20107;-75
2023/11/28 00:18:37;;;;;;;18.57;13.40;;;6.80;99.90;;;;;;5074264;28;20459;-75
2023/11/28 00:21:03;;;;;;;16.40;13.53;;;6.80;99.90;;;;;;5074229;28;20128;-75
2023/11/28 00:23:29;;;;;;;20.13;14.23;;;6.80;99.90;;;;;;5074497;28;20045;-75
2023/11/28 00:25:55;;;;;;;21.83;14.43;;;6.80;99.90;;;;;;5056182;28;20025;-75
2023/11/28 00:28:21;;;;;;;19.87;14.83;;;6.80;99.90;;;;;;5056244;28;20036;-75
2023/11/28 00:30:46;;;;;;;18.63;14.00;;;6.80;99.90;;;;;;5074065;28;20050;-75
2023/11/28 00:33:12;;;;;;;20.50;14.47;;;6.80;99.90;;;;;;5074470;28;20033;-75
2023/11/28 00:35:38;;;;;;;19.13;14.67;;;6.80;99.90;;;;;;5074521;28;20111;-75
2023/11/28 00:38:05;;;;;;;17.13;12.80;;;6.80;99.90;;;;;;5074205;28;20043;-75
2023/11/28 00:40:31;;;;;;;18.00;13.60;;;6.80;99.90;;;;;;5074141;28;20125;-74
2023/11/28 00:43:00;;;;;;;20.77;14.53;;;6.80;99.90;;;;;;5073032;28;20040;-75
2023/11/28 00:45:26;;;;;;;18.60;14.37;;;6.80;99.90;;;;;;5073963;28;20485;-74
2023/11/28 00:47:53;;;;;;;20.80;14.77;;;6.80;99.90;;;;;;5073750;28;20047;-74
2023/11/28 00:50:19;;;;;;;19.80;15.07;;;6.80;99.90;;;;;;5073890;28;20033;-75
2023/11/28 00:52:45;;;;;;;17.77;14.43;;;6.80;99.90;;;;;;5073754;28;20037;-75
2023/11/28 00:55:11;;;;;;;19.27;14.50;;;6.80;99.90;;;;;;5073863;28;20456;-75
2023/11/28 00:57:37;;;;;;;18.70;14.50;;;6.80;99.90;;;;;;5073567;28;20036;-75
2023/11/28 01:00:10;;;;;;;17.83;14.10;;;6.80;99.90;;;;;;5073558;28;20033;-75
2023/11/28 01:02:37;;;;;;;18.85;14.25;;;6.80;99.90;;;;;;5073101;28;20418;-75
2023/11/28 01:05:05;;;;;;;21.80;14.87;;;6.80;99.90;;;;;;5073269;28;20385;-74
2023/11/28 01:07:31;;;;;;;19.60;14.33;;;6.80;99.90;;;;;;5073231;28;20472;-74
2023/11/28 01:09:57;;;;;;;21.60;14.37;;;6.80;99.90;;;;;;5073383;28;20108;-75
2023/11/28 01:12:24;;;;;;;20.47;14.40;;;6.80;99.90;;;;;;5072346;28;20131;-75
2023/11/28 01:14:50;;;;;;;19.60;14.80;;;6.80;99.90;;;;;;5072559;28;20040;-75
2023/11/28 01:17:15;;;;;;;19.07;14.80;;;6.80;99.90;;;;;;5072541;28;20032;-74
2023/11/28 01:19:41;;;;;;;21.83;15.50;;;6.80;99.90;;;;;;5072292;28;20094;-75
2023/11/28 01:22:08;;;;;;;19.83;14.30;;;6.80;99.90;;;;;;5072610;28;20064;-74
2023/11/28 01:24:35;;;;;;;23.47;15.33;;;6.80;99.90;;;;;;5072560;28;20033;-74
2023/11/28 01:27:00;;;;;;;16.07;12.77;;;6.80;99.90;;;;;;5072613;28;20036;-75
2023/11/28 01:29:26;;;;;;;16.80;13.07;;;6.80;99.90;;;;;;5072490;28;20040;-74
2023/11/28 01:31:52;;;;;;;18.87;13.37;;;6.80;99.90;;;;;;5071997;28;20048;-75
2023/11/28 01:34:18;;;;;;;17.80;13.10;;;6.80;99.90;;;;;;5072050;28;20043;-75
2023/11/28 01:36:44;;;;;;;15.87;12.37;;;6.80;99.90;;;;;;5071970;28;20152;-75
2023/11/28 01:39:10;;;;;;;17.63;12.53;;;6.80;99.90;;;;;;5072129;28;20040;-74
2023/11/28 01:41:36;;;;;;;16.80;12.40;;;6.80;99.90;;;;;;5054174;28;20392;-74
2023/11/28 01:44:06;;;;;;;15.73;11.90;;;6.80;99.90;;;;;;5072047;28;20040;-74
2023/11/28 01:46:36;;;;;;;17.53;12.33;;;6.80;99.90;;;;;;5072129;28;20024;-75
2023/11/28 01:49:02;;;;;;;16.83;11.90;;;6.80;99.90;;;;;;5071682;28;20392;-75
2023/11/28 01:51:29;;;;;;;14.03;11.70;;;6.80;99.90;;;;;;5054007;28;20460;-75
2023/11/28 01:53:58;;;;;;;16.00;12.77;;;6.80;99.90;;;;;;5071480;28;20037;-75
2023/11/28 01:56:24;;;;;;;16.37;13.23;;;6.80;99.90;;;;;;5071736;28;20492;-75
2023/11/28 01:58:51;;;;;;;19.10;13.27;;;6.80;99.90;;;;;;5068469;28;20044;-75
2023/11/28 02:01:20;;;;;;;17.80;13.57;;;6.80;99.90;;;;;;5069336;28;20566;-74
2023/11/28 02:03:48;;;;;;;17.93;13.43;;;6.80;99.90;;;;;;5069287;28;20618;-75
2023/11/28 02:06:14;;;;;;;17.93;13.20;;;6.80;99.90;;;;;;5071664;28;20060;-75
2023/11/28 02:08:40;;;;;;;17.93;13.33;;;6.80;99.90;;;;;;5071759;28;20537;-75
2023/11/28 02:11:06;;;;;;;17.30;13.40;;;6.80;99.90;;;;;;5071857;28;20032;-75
2023/11/28 02:13:32;;;;;;;15.17;12.63;;;6.80;99.90;;;;;;5017882;28;1528862;-74
2023/11/28 02:15:58;;;;;;;16.47;12.40;;;6.80;99.90;;;;;;5072428;28;20037;-75
2023/11/28 02:18:24;;;;;;;18.77;13.13;;;6.80;99.90;;;;;;5054507;28;20479;-75
2023/11/28 02:20:50;;;;;;;16.80;12.70;;;6.80;99.90;;;;;;5072202;28;20044;-75
2023/11/28 02:23:17;;;;;;;17.30;12.83;;;6.80;99.90;;;;;;5072714;28;20049;-74
2023/11/28 02:25:50;;;;;;;16.43;12.50;;;6.80;99.90;;;;;;5072219;28;20041;-74
2023/11/28 02:28:21;;;;;;;21.40;13.03;;;6.80;99.90;;;;;;5071962;28;20068;-74
2023/11/28 02:30:48;;;;;;;17.57;13.47;;;6.80;99.90;;;;;;5072456;28;20033;-75
2023/11/28 02:33:15;;;;;;;17.37;12.73;;;6.80;99.90;;;;;;5072529;28;20037;-75
2023/11/28 02:35:41;;;;;;;15.83;12.97;;;6.80;99.90;;;;;;5072365;28;20059;-75
2023/11/28 02:38:07;;;;;;;17.90;13.07;;;6.80;99.90;;;;;;5072200;28;20472;-75
2023/11/28 02:40:32;;;;;;;17.10;12.90;;;6.80;99.90;;;;;;5072359;28;20033;-74
2023/11/28 02:42:58;;;;;;;18.43;12.30;;;6.80;99.90;;;;;;5071832;28;20044;-75
2023/11/28 02:45:24;;;;;;;19.53;13.00;;;6.80;99.90;;;;;;5072213;28;20091;-75
2023/11/28 02:47:50;;;;;;;18.70;13.40;;;6.80;99.90;;;;;;5072215;28;20036;-75
2023/11/28 02:50:15;;;;;;;15.93;11.93;;;6.80;99.90;;;;;;5072114;28;20056;-75
2023/11/28 02:52:41;;;;;;;16.47;12.50;;;6.80;99.90;;;;;;5072427;28;20064;-75
2023/11/28 02:55:07;;;;;;;17.83;12.13;;;6.80;99.90;;;;;;5072167;28;20028;-76
2023/11/28 02:57:33;;;;;;;23.43;14.93;;;6.80;99.90;;;;;;5072266;28;20037;-75
2023/11/28 02:59:59;;;;;;;17.03;12.43;;;6.80;99.90;;;;;;5072273;28;20025;-75
2023/11/28 03:02:26;;;;;;;17.73;12.23;;;6.80;99.90;;;;;;5072167;28;20044;-75
2023/11/28 03:04:52;;;;;;;12.40;10.00;;;6.80;99.90;;;;;;5072424;28;20484;-75
2023/11/28 03:07:18;;;;;;;14.27;9.97;;;6.70;99.90;;;;;;5075839;28;20048;-75
2023/11/28 03:09:43;;;;;;;14.70;10.80;;;6.80;99.90;;;;;;5075028;28;20075;-75
2023/11/28 03:12:09;;;;;;;13.87;11.07;;;6.80;99.90;;;;;;5075744;28;20032;-74
2023/11/28 03:14:35;;;;;;;15.20;11.07;;;6.70;99.90;;;;;;5075707;28;20056;-74
2023/11/28 03:17:01;;;;;;;15.40;11.03;;;6.70;99.90;;;;;;5075706;28;20032;-75
2023/11/28 03:19:27;;;;;;;11.53;8.77;;;6.70;99.90;;;;;;5075684;28;20061;-75
2023/11/28 03:21:53;;;;;;;13.00;8.70;;;6.70;99.90;;;;;;5075820;28;20031;-76
2023/11/28 03:24:19;;;;;;;14.50;9.97;;;6.70;99.90;;;;;;5075612;28;20033;-74
2023/11/28 03:26:45;;;;;;;13.30;9.40;;;6.70;99.90;;;;;;5075730;28;20033;-74
2023/11/28 03:29:10;;;;;;;11.63;8.57;;;6.70;99.90;;;;;;5075495;28;20027;-75
2023/11/28 03:31:36;;;;;;;13.93;8.83;;;6.70;99.90;;;;;;5081020;28;20060;-75
2023/11/28 03:34:03;;;;;;;12.47;8.37;;;6.70;99.90;;;;;;5091903;28;20130;-75
2023/11/28 03:36:29;;;;;;;13.33;8.73;;;6.70;99.90;;;;;;5095699;28;20036;-73
2023/11/28 03:38:55;;;;;;;13.57;8.17;;;6.70;99.90;;;;;;5095698;28;20094;-75
2023/11/28 03:41:21;;;;;;;10.63;8.40;;;6.70;99.90;;;;;;5095607;28;20103;-75
2023/11/28 03:43:46;;;;;;;13.77;8.13;;;6.70;99.90;;;;;;5095367;28;20105;-75
2023/11/28 03:46:12;;;;;;;10.47;7.43;;;6.70;99.90;;;;;;5095483;28;20078;-74
2023/11/28 03:48:38;;;;;;;12.20;8.70;;;6.70;99.90;;;;;;5095626;28;20032;-74
2023/11/28 03:51:04;;;;;;;10.90;8.20;;;6.70;99.90;;;;;;5095366;28;20032;-75
2023/11/28 03:53:30;;;;;;;14.13;8.20;;;6.70;99.90;;;;;;5095159;28;20040;-75
2023/11/28 03:55:57;;;;;;;11.13;7.60;;;6.70;99.90;;;;;;5095292;28;20032;-75
2023/11/28 03:58:26;;;;;;;10.03;7.90;;;6.70;99.90;;;;;;5095138;28;20484;-74
2023/11/28 04:00:52;;;;;;;9.43;6.87;;;6.70;99.90;;;;;;5095402;28;20479;-75
2023/11/28 04:03:17;;;;;;;10.27;6.43;;;6.80;99.90;;;;;;5064368;28;20048;-75
2023/11/28 04:05:44;;;;;;;9.07;5.83;;;6.80;99.90;;;;;;5055084;28;20033;-75
2023/11/28 04:08:09;;;;;;;9.67;6.57;;;6.80;99.90;;;;;;5054928;28;20477;-75
2023/11/28 04:10:35;;;;;;;11.27;6.80;;;6.80;99.90;;;;;;5054859;28;20056;-75
2023/11/28 04:13:01;;;;;;;10.57;6.47;;;6.70;99.90;;;;;;5054521;28;20049;-75
2023/11/28 04:15:27;;;;;;;10.03;7.33;;;6.80;99.90;;;;;;5054539;28;20044;-75
2023/11/28 04:17:53;;;;;;;10.17;7.00;;;6.80;99.90;;;;;;5053650;28;20409;-75
2023/11/28 04:20:18;;;;;;;10.37;7.53;;;6.70;99.90;;;;;;5054910;28;20076;-74
2023/11/28 04:22:44;;;;;;;12.37;11.07;;;6.70;99.90;;;;;;5053353;28;20049;-75
2023/11/28 04:25:10;;;;;;;11.20;9.20;;;6.70;99.90;;;;;;5054588;28;20037;-75
2023/11/28 04:27:36;;;;;;;11.73;8.97;;;6.70;99.90;;;;;;5054328;28;20534;-75
2023/11/28 04:30:02;;;;;;;9.20;6.97;;;6.70;99.90;;;;;;5054308;28;20083;-75
2023/11/28 04:32:27;;;;;;;8.60;6.30;;;6.70;99.90;;;;;;5054781;28;20555;-75
2023/11/28 04:34:53;;;;;;;8.73;6.03;;;6.70;99.90;;;;;;5054839;28;20413;-75
2023/11/28 04:37:19;;;;;;;8.97;6.13;;;6.70;99.90;;;;;;5054862;28;20094;-74
2023/11/28 04:39:45;;;;;;;10.77;6.30;;;6.70;99.90;;;;;;5054682;28;20366;-73
2023/11/28 04:42:11;;;;;;;8.00;6.07;;;6.70;99.90;;;;;;5053964;28;20037;-73
2023/11/28 04:44:37;;;;;;;10.07;6.13;;;6.70;99.90;;;;;;5054065;28;20469;-74
2023/11/28 04:47:04;;;;;;;7.97;6.10;;;6.70;99.90;;;;;;5054208;28;20044;-72
2023/11/28 04:49:29;;;;;;;8.37;5.97;;;6.70;99.90;;;;;;5053797;28;20508;-75
2023/11/28 04:51:55;;;;;;;10.20;6.40;;;6.70;99.90;;;;;;5054120;28;20068;-73
2023/11/28 04:54:21;;;;;;;8.50;5.80;;;6.70;99.90;;;;;;5054127;28;20033;-74
2023/11/28 04:56:46;;;;;;;9.13;6.83;;;6.70;99.90;;;;;;5054026;28;20108;-74
2023/11/28 04:59:13;;;;;;;9.33;6.63;;;6.80;99.90;;;;;;5053880;28;20032;-73
2023/11/28 05:01:46;;;;;;;12.33;6.87;;;6.70;99.90;;;;;;5053859;28;20025;-74
2023/11/28 05:04:13;;;;;;;9.00;6.85;;;6.80;99.90;;;;;;5053828;28;20052;-75
2023/11/28 05:06:39;;;;;;;8.90;6.37;;;6.80;99.90;;;;;;5035971;28;20524;-73
2023/11/28 05:09:05;;;;;;;9.43;6.40;;;6.80;99.90;;;;;;5053596;28;20043;-74
2023/11/28 05:11:31;;;;;;;9.10;6.80;;;6.80;99.90;;;;;;5053631;28;20120;-74
2023/11/28 05:13:58;;;;;;;9.63;6.27;;;6.80;99.90;;;;;;5053151;28;20477;-75
2023/11/28 05:16:24;;;;;;;8.27;6.83;;;6.80;99.90;;;;;;5035015;28;20060;-74
2023/11/28 05:18:49;;;;;;;8.40;6.57;;;6.80;99.90;;;;;;5053375;28;20056;-74
2023/11/28 05:21:15;;;;;;;8.77;7.20;;;6.80;99.90;;;;;;5053376;28;20033;-75
2023/11/28 05:23:41;;;;;;;10.83;7.27;;;6.80;99.90;;;;;;5053110;28;20040;-75
2023/11/28 05:26:07;;;;;;;8.10;6.40;;;6.80;99.90;;;;;;5051701;28;20124;-74
2023/11/28 05:28:33;;;;;;;9.57;6.70;;;6.80;99.90;;;;;;5052726;28;20076;-74
2023/11/28 05:30:59;;;;;;;8.70;6.47;;;6.70;99.90;;;;;;5035425;28;20087;-74
2023/11/28 05:33:25;;;;;;;8.57;6.77;;;6.80;99.90;;;;;;5053400;28;20029;-74
2023/11/28 05:35:51;;;;;;;12.67;8.53;;;6.70;99.90;;;;;;5053502;28;20029;-74
2023/11/28 05:38:17;;;;;;;11.63;6.97;;;6.70;99.90;;;;;;5053296;28;20040;-72
2023/11/28 05:40:42;;;;;;;9.63;7.63;;;6.80;99.90;;;;;;5052125;28;20457;-73
2023/11/28 05:43:08;;;;;;;10.57;7.43;;;6.80;99.90;;;;;;5052997;28;20123;-74
2023/11/28 05:45:34;;;;;;;11.17;7.90;;;6.70;99.90;;;;;;5052862;28;20024;-72
2023/11/28 05:48:00;;;;;;;13.10;8.10;;;6.70;99.90;;;;;;5052812;28;20044;-73
2023/11/28 05:50:26;;;;;;;11.03;7.90;;;6.70;99.90;;;;;;5052979;28;20040;-74
2023/11/28 05:52:52;;;;;;;10.23;8.30;;;6.80;99.90;;;;;;5052504;28;20037;-72
2023/11/28 05:55:20;;;;;;;15.17;8.93;;;6.70;99.90;;;;;;5052582;28;20032;-73
2023/11/28 05:57:47;;;;;;;12.60;9.03;;;6.70;99.90;;;;;;5052959;28;20043;-73
2023/11/28 06:00:13;;;;;;;15.23;9.33;;;6.70;99.90;;;;;;5052873;28;20040;-74
2023/11/28 06:02:39;;;;;;;13.93;10.07;;;6.70;99.90;;;;;;5052607;28;20049;-73
2023/11/28 06:05:06;;;;;;;12.40;9.57;;;6.70;99.90;;;;;;5052710;28;20091;-74
2023/11/28 06:07:32;;;;;;;10.27;8.47;;;6.70;99.90;;;;;;5052800;28;20048;-73
2023/11/28 06:09:58;;;;;;;11.27;7.73;;;6.70;99.90;;;;;;5052688;28;20033;-73
2023/11/28 06:12:24;;;;;;;9.70;7.37;;;6.70;99.90;;;;;;5051668;28;20040;-74
2023/11/28 06:14:53;;;;;;;9.33;7.20;;;6.70;99.90;;;;;;5034639;28;20052;-72
2023/11/28 06:17:19;;;;;;;8.87;6.47;;;6.70;99.90;;;;;;5052559;28;20041;-74
2023/11/28 06:19:45;;;;;;;8.97;6.40;;;6.70;99.90;;;;;;5052863;28;20184;-74
2023/11/28 06:22:11;;;;;;;8.33;5.90;;;6.70;99.90;;;;;;5052528;28;20064;-72
2023/11/28 06:24:37;;;;;;;7.10;5.70;;;6.80;99.90;;;;;;5052606;28;20563;-73
2023/11/28 06:27:06;;;;;;;7.87;5.87;;;6.70;99.90;;;;;;5052567;28;20029;-73
2023/11/28 06:29:32;;;;;;;6.00;5.40;;;6.70;99.90;;;;;;5052517;28;20385;-74
2023/11/28 06:31:59;;;;;;;8.63;6.07;;;6.80;99.90;;;;;;5052335;28;20045;-74
2023/11/28 06:34:28;;;;;;;7.50;5.60;;;6.80;99.90;;;;;;5052317;28;20063;-72
2023/11/28 06:36:54;;;;;;;8.43;5.60;;;6.80;99.90;;;;;;5052193;28;20513;-73
2023/11/28 06:39:23;;;;;;;8.17;5.67;;;6.80;99.90;;;;;;5052404;28;20054;-73
2023/11/28 06:41:49;;;;;;;7.30;5.43;;;6.80;99.90;;;;;;5055552;28;20435;-73
2023/11/28 06:44:18;;;;;;;10.33;5.57;;;6.80;99.90;;;;;;5054430;28;20052;-73
2023/11/28 06:46:46;;;;;;;6.23;5.43;;;6.80;99.90;;;;;;5056183;28;20029;-72
2023/11/28 06:49:12;;;;;;;6.37;4.53;;;6.80;99.90;;;;;;5038395;28;20065;-71
2023/11/28 06:51:38;;;;;;;7.70;5.13;;;6.80;99.90;;;;;;5056231;28;20044;-73
2023/11/28 06:54:04;;;;;;;6.63;4.67;;;6.80;99.90;;;;;;5056165;28;20068;-72
2023/11/28 06:56:30;;;;;;;7.67;4.70;;;6.80;99.90;;;;;;5056087;28;20037;-71
2023/11/28 06:58:56;;;;;;;7.37;4.70;;;6.80;99.90;;;;;;5055725;28;20033;-72
2023/11/28 07:01:23;;;;;;;8.57;4.83;;;6.80;99.90;;;;;;5056071;28;20033;-71
2023/11/28 07:03:49;;;;;;;9.47;5.50;;;6.80;99.90;;;;;;5056110;28;20048;-72
2023/11/28 07:06:15;;;;;;;9.70;5.37;;;6.80;99.90;;;;;;5056249;28;20428;-71
2023/11/28 07:08:41;;;;;;;6.90;5.03;;;6.80;99.90;;;;;;5055990;28;20094;-72
2023/11/28 07:11:15;;;;;;;8.47;5.57;;;6.80;99.90;;;;;;5055857;28;20453;-72
2023/11/28 07:13:40;;;;;;;6.90;5.40;;;6.80;99.90;;;;;;5055818;28;20540;-72
2023/11/28 07:16:07;;;;;;;10.80;7.73;;;6.80;99.90;;;;;;5055958;28;20112;-72
2023/11/28 07:18:32;;;;;;;14.40;10.80;;;6.80;99.90;;;;;;5055932;28;20538;-73
2023/11/28 07:20:58;;;;;;;12.93;9.00;;;6.80;99.90;;;;;;5055935;28;20033;-72
2023/11/28 07:23:24;;;;;;;11.97;6.70;;;6.80;99.90;;;;;;5055432;28;20037;-72
2023/11/28 07:25:50;;;;;;;8.43;6.00;;;6.80;99.90;;;;;;5055485;28;20025;-71
2023/11/28 07:28:16;;;;;;;7.97;6.13;;;6.80;99.90;;;;;;5055611;28;20037;-73
2023/11/28 07:30:42;;;;;;;9.27;5.47;;;6.80;99.90;;;;;;5055699;28;20033;-74
2023/11/28 07:33:08;;;;;;;10.90;5.60;;;6.80;99.90;;;;;;5055413;28;20029;-73
2023/11/28 07:35:34;;;;;;;8.93;5.57;;;6.80;99.90;;;;;;5053803;28;20056;-74
2023/11/28 07:37:59;;;;;;;8.87;5.87;;;6.80;99.90;;;;;;5052478;28;20033;-75
2023/11/28 07:40:26;;;;;;;9.97;5.93;;;6.80;99.90;;;;;;5052612;28;20029;-74
2023/11/28 07:42:53;;;;;;;10.80;6.43;;;6.80;99.90;;;;;;5068745;28;20050;-74
2023/11/28 07:45:20;;;;;;;11.07;7.33;;;6.90;99.90;;;;;;5087361;28;20079;-74
2023/11/28 07:47:46;;;;;;;12.20;7.33;;;6.90;99.90;;;;;;5095704;28;20036;-74
2023/11/28 07:50:13;;;;;;;10.10;7.70;;;6.90;99.90;;;;;;5095270;28;20111;-75
2023/11/28 07:52:39;;;;;;;12.70;8.30;;;6.90;99.90;;;;;;5095327;28;20496;-75
2023/11/28 07:55:06;;;;;;;15.33;9.73;;;6.90;99.90;;;;;;5095397;28;20124;-74
2023/11/28 07:57:32;;;;;;;13.73;9.17;;;6.90;99.90;;;;;;5095202;28;20052;-75
2023/11/28 07:59:58;;;;;;;14.43;9.50;;;6.90;99.90;;;;;;5077214;28;20043;-75
2023/11/28 08:02:23;;;;;;;15.23;9.70;;;7.00;99.90;;;;;;5092007;28;20043;-75
2023/11/28 08:04:49;;;;;;;14.90;10.43;;;7.00;99.90;;;;;;5092489;28;20044;-75
2023/11/28 08:07:15;;;;;;;15.03;12.80;;;7.00;99.90;;;;;;5094756;28;20028;-76
2023/11/28 08:09:41;;;;;;;18.33;12.23;;;7.00;99.90;;;;;;5095022;28;20036;-74
2023/11/28 08:12:08;;;;;;;14.73;10.57;;;7.10;99.90;;;;;;5095255;28;20036;-75
2023/11/28 08:14:33;;;;;;;14.30;10.43;;;7.10;99.90;;;;;;5084078;28;20047;-75
2023/11/28 08:16:59;;;;;;;17.37;10.63;;;7.10;99.90;;;;;;5092292;28;20392;-75
2023/11/28 08:19:26;;;;;;;14.53;9.93;;;7.10;99.90;;;;;;5077025;28;20028;-75
2023/11/28 08:21:52;;;;;;;14.07;9.07;;;7.10;99.90;;;;;;5094880;28;20028;-74
2023/11/28 08:24:18;;;;;;;12.53;8.43;;;7.10;99.90;;;;;;5094571;28;20376;-73
2023/11/28 08:26:43;;;;;;;13.17;9.00;;;7.10;99.90;;;;;;5094610;28;20161;-72
2023/11/28 08:29:09;;;;;;;11.40;8.20;;;7.20;99.90;;;;;;5095023;28;20035;-74
2023/11/28 08:31:35;;;;;;;10.43;8.67;;;7.20;99.90;;;;;;5091094;28;20025;-72
2023/11/28 08:34:01;;;;;;;12.73;8.73;;;7.10;99.90;;;;;;5074405;28;20159;-71
2023/11/28 08:36:29;;;;;;;11.60;8.60;;;7.20;99.90;;;;;;5074391;28;20032;-73
2023/11/28 08:38:55;;;;;;;14.77;9.47;;;7.20;99.90;;;;;;5074164;28;20036;-73
2023/11/28 08:41:21;;;;;;;12.20;9.83;;;7.20;99.90;;;;;;5074420;28;20054;-72
2023/11/28 08:43:47;;;;;;;14.43;10.77;;;7.20;99.90;;;;;;5072848;28;20588;-74
2023/11/28 08:46:14;;;;;;;14.97;10.57;;;7.20;99.90;;;;;;5083561;28;20111;-72
2023/11/28 08:48:42;;;;;;;13.87;10.13;;;7.20;99.90;;;;;;5093904;28;20044;-71
2023/11/28 08:51:08;;;;;;;14.00;10.57;;;7.20;99.90;;;;;;5094132;28;20032;-72
2023/11/28 08:53:34;;;;;;;13.00;10.63;;;7.30;99.90;;;;;;5093875;28;20032;-72
2023/11/28 08:55:59;;;;;;;14.83;10.30;;;7.30;99.90;;;;;;5093871;28;20035;-73
2023/11/28 08:58:25;;;;;;;14.03;11.90;;;7.30;99.90;;;;;;5094075;28;20040;-72
2023/11/28 09:00:54;;;;;;;14.57;11.10;;;7.30;99.90;;;;;;5094074;28;20067;-73
2023/11/28 09:03:21;;;;;;;14.10;10.70;;;7.40;99.90;;;;;;5093454;28;20055;-73
2023/11/28 09:05:47;;;;;;;15.60;11.33;;;7.40;99.90;;;;;;5094161;28;20083;-72
2023/11/28 09:08:13;;;;;;;14.10;11.07;;;7.40;99.90;;;;;;5094047;28;20472;-72
2023/11/28 09:10:39;;;;;;;16.87;11.10;;;7.40;99.90;;;;;;5092932;28;20115;-73
2023/11/28 09:13:04;;;;;;;18.50;12.03;;;7.50;99.90;;;;;;5072828;28;20059;-74
2023/11/28 09:15:30;;;;;;;14.63;11.47;;;7.50;99.90;;;;;;5091092;28;20070;-70
2023/11/28 09:17:56;;;;;;;14.23;11.67;;;7.50;99.90;;;;;;5092987;28;20032;-74
2023/11/28 09:20:21;;;;;;;19.77;11.83;;;7.60;99.90;;;;;;5085044;28;20033;-70
2023/11/28 09:22:47;;;;;;;16.20;9.80;;;7.60;99.90;;;;;;5055254;28;20068;-74
2023/11/28 09:25:14;;;;;;;11.87;7.63;;;7.60;99.90;;;;;;5072903;28;20469;-71
2023/11/28 09:27:40;;;;;;;11.57;8.03;;;7.70;99.90;;;;;;5073237;28;20037;-75
2023/11/28 09:30:06;;;;;;;13.83;8.70;;;7.60;99.90;;;;;;5070133;28;20480;-72
2023/11/28 09:32:32;;;;;;;11.13;7.87;;;7.70;99.90;;;;;;5052895;28;20438;-70
2023/11/28 09:34:58;;;;;;;13.73;8.43;;;7.70;99.90;;;;;;5070099;28;20045;-74
2023/11/28 09:37:24;;;;;;;12.80;7.43;;;7.70;99.90;;;;;;5070660;28;20086;-73
2023/11/28 09:39:50;;;;;;;11.73;6.97;;;7.70;99.90;;;;;;5071576;28;20104;-72
2023/11/28 09:42:21;;;;;;;8.77;6.93;;;7.80;99.90;;;;;;5072978;28;20040;-73
2023/11/28 09:44:48;;;;;;;18.40;7.50;;;7.80;99.90;;;;;;5072973;28;20561;-72
2023/11/28 09:47:17;;;;;;;11.93;7.50;;;7.80;99.90;;;;;;5073090;28;20033;-74
2023/11/28 09:49:46;;;;;;;14.53;8.30;;;7.90;99.90;;;;;;5072806;28;20120;-73
2023/11/28 09:52:14;;;;;;;11.50;7.90;;;8.00;99.90;;;;;;5073160;28;20469;-74
2023/11/28 09:54:40;;;;;;;11.83;8.00;;;8.00;99.90;;;;;;5072950;28;20067;-74
2023/11/28 09:57:08;;;;;;;10.47;6.87;;;8.10;99.90;;;;;;5072875;28;20396;-74
2023/11/28 09:59:38;;;;;;;12.53;7.93;;;8.20;99.90;;;;;;5072904;28;20402;-73
2023/11/28 10:02:05;;;;;;;12.33;7.10;;;8.30;99.90;;;;;;5072655;28;20044;-74
2023/11/28 10:04:32;;;;;;;13.83;7.70;;;8.30;99.90;;;;;;5072734;28;20051;-74
2023/11/28 10:07:01;;;;;;;9.13;6.17;;;8.30;99.90;;;;;;5072713;28;20397;-73
2023/11/28 10:09:31;;;;;;;11.20;7.43;;;8.30;99.90;;;;;;5072896;28;20040;-74
2023/11/28 10:11:59;;;;;;;10.73;6.77;;;8.30;99.90;;;;;;5072807;28;20048;-74
2023/11/28 10:14:25;;;;;;;10.93;7.20;;;8.30;99.90;;;;;;5066977;23;20427;-76
2023/11/28 10:16:53;;;;;;;11.27;7.87;;;8.30;99.90;;;;;;5072289;28;20470;-74
2023/11/28 10:19:19;;;;;;;14.83;7.60;;;8.30;99.90;;;;;;5072405;28;20024;-76
2023/11/28 10:21:46;;;;;;;10.57;7.37;;;8.30;99.90;;;;;;5072451;28;20094;-76
2023/11/28 10:24:12;;;;;;;15.27;8.00;;;8.30;99.90;;;;;;5052883;28;20110;-72
2023/11/28 10:26:38;;;;;;;12.87;7.90;;;8.30;99.90;;;;;;5052438;28;20476;-76
2023/11/28 10:29:05;;;;;;;12.37;8.20;;;8.30;99.90;;;;;;5052251;28;20508;-76
2023/11/28 10:31:40;;;;;;;10.90;7.67;;;8.20;99.90;;;;;;5052212;28;20431;-75
2023/11/28 10:34:10;;;;;;;11.97;8.03;;;8.20;99.90;;;;;;5034821;28;20037;-74
2023/11/28 10:36:42;;;;;;;10.67;8.07;;;8.30;99.90;;;;;;5052712;28;20075;-76
2023/11/28 10:39:12;;;;;;;10.77;8.10;;;8.30;99.90;;;;;;5052402;28;20029;-75
2023/11/28 10:41:40;;;;;;;12.93;8.23;;;8.30;99.90;;;;;;5052301;28;20060;-76
2023/11/28 10:44:06;;;;;;;13.00;8.47;;;8.30;99.90;;;;;;5051858;28;20049;-76
2023/11/28 10:46:34;;;;;;;12.47;8.47;;;8.30;99.90;;;;;;5034609;28;20404;-76
2023/11/28 10:49:01;;;;;;;11.57;7.77;;;8.30;99.90;;;;;;5052222;28;20037;-76
2023/11/28 10:51:32;;;;;;;13.73;8.57;;;8.30;99.90;;;;;;5052183;28;20032;-76
2023/11/28 10:54:05;;;;;;;11.33;8.93;;;8.30;99.90;;;;;;5052963;28;20393;-75
2023/11/28 10:56:42;;;;;;;12.30;8.40;;;8.20;99.90;;;;;;5052832;28;20029;-75
2023/11/28 10:59:14;;;;;;;12.07;8.47;;;8.20;99.90;;;;;;5052932;28;20527;-76
2023/11/28 11:01:43;;;;;;;14.20;9.37;;;8.20;99.90;;;;;;5053094;28;20393;-76
2023/11/28 11:04:13;;;;;;;16.90;10.33;;;8.20;99.90;;;;;;5052871;28;20040;-76
2023/11/28 11:06:40;;;;;;;21.43;10.73;;;8.20;99.90;;;;;;5061402;28;20048;-76
2023/11/28 11:09:11;;;;;;;16.57;10.20;;;8.20;99.90;;;;;;5062472;28;20411;-73
2023/11/28 11:11:41;;;;;;;15.17;10.50;;;8.10;99.90;;;;;;5053211;28;20033;-76
2023/11/28 11:14:24;;;;;;;14.93;9.90;;;8.10;99.90;;;;;;5052208;28;20524;-76
2023/11/28 11:17:14;;;;;;;;;;;8.10;99.90;;;;;;5052851;28;20036;-75
2023/11/28 11:19:46;;;;;;;17.37;10.63;;;8.10;99.90;;;;;;5051874;28;20323;-75
2023/11/28 11:22:21;;;;;;;14.77;10.82;;;8.10;99.90;;;;;;5044037;28;20403;-75
2023/11/28 11:24:47;;;;;;;15.17;10.47;;;8.10;99.90;;;;;;5071823;28;20048;-76
2023/11/28 11:27:20;;;;;;;13.53;10.80;;;8.10;99.90;;;;;;5074444;28;20040;-76
2023/11/28 11:29:47;;;;;;;18.77;11.30;;;8.10;99.90;;;;;;5075577;28;20043;-73
2023/11/28 11:32:16;;;;;;;16.00;10.10;;;8.10;99.90;;;;;;5057649;28;20488;-73
2023/11/28 11:34:47;;;;;;;13.03;10.83;;;8.10;99.90;;;;;;5057678;28;20086;-76
2023/11/28 11:37:18;;;;;;;19.50;10.63;;;8.10;99.90;;;;;;5057044;28;20033;-75
2023/11/28 11:39:49;;;;;;;14.37;11.07;;;8.10;99.90;;;;;;5055673;28;20631;-76
2023/11/28 11:42:18;;;;;;;18.70;11.07;;;8.10;99.90;;;;;;5055454;28;20079;-76
2023/11/28 11:44:50;;;;;;;17.00;11.50;;;8.10;99.90;;;;;;5037460;28;20389;-75
2023/11/28 11:47:21;;;;;;;13.27;9.85;;;8.10;99.90;;;;;;5055387;28;20048;-76
2023/11/28 11:49:51;;;;;;;16.37;10.10;;;8.10;99.90;;;;;;5055140;28;20028;-76
2023/11/28 11:52:20;;;;;;;14.97;10.67;;;8.10;99.90;;;;;;5055245;28;20104;-73
2023/11/28 11:54:46;;;;;;;17.30;10.57;;;8.10;99.90;;;;;;5055061;28;20397;-76
2023/11/28 11:57:13;;;;;;;19.60;11.70;;;8.10;99.90;;;;;;5055105;28;20481;-73
2023/11/28 11:59:42;;;;;;;14.03;10.53;;;8.10;99.90;;;;;;5055250;28;20029;-76
2023/11/28 12:02:09;;;;;;;12.93;10.30;;;8.10;99.90;;;;;;5037071;28;20025;-75
2023/11/28 12:04:41;;;;;;;12.47;9.47;;;8.10;99.90;;;;;;5055262;28;20037;-76
2023/11/28 12:07:12;;;;;;;22.35;11.20;;;8.10;99.90;;;;;;5056916;28;20366;-76
2023/11/28 12:09:38;;;;;;;14.33;10.47;;;8.10;99.90;;;;;;5075212;28;20488;-73
2023/11/28 12:12:09;;;;;;;12.50;10.07;;;8.20;99.90;;;;;;5074954;28;20360;-73
2023/11/28 12:14:36;;;;;;;17.63;10.73;;;8.20;99.90;;;;;;5074658;28;20049;-74
2023/11/28 12:17:02;;;;;;;15.50;10.93;;;8.20;99.90;;;;;;5075004;28;20492;-73
2023/11/28 12:19:32;;;;;;;14.83;10.83;;;8.10;99.90;;;;;;5075022;28;20516;-73
2023/11/28 12:22:03;;;;;;;14.33;10.27;;;8.10;99.90;;;;;;5074614;28;20576;-72
2023/11/28 12:24:33;;;;;;;15.60;10.43;;;8.20;99.90;;;;;;5074646;28;20130;-71
2023/11/28 12:27:02;;;;;;;13.60;10.43;;;8.20;99.90;;;;;;5074571;28;20035;-73
2023/11/28 12:29:30;;;;;;;15.20;10.57;;;8.20;99.90;;;;;;5074563;28;20029;-73
2023/11/28 12:31:56;;;;;;;15.83;10.67;;;8.20;99.90;;;;;;5074687;28;20028;-73
2023/11/28 12:34:24;;;;;;;13.77;10.67;;;8.20;99.90;;;;;;5074992;28;20020;-76
2023/11/28 12:36:50;;;;;;;12.20;10.60;;;8.20;99.90;;;;;;5056786;28;20037;-73
2023/11/28 12:39:22;;;;;;;12.83;10.33;;;8.20;99.90;;;;;;5073969;28;20031;-73
2023/11/28 12:41:48;;;;;;;14.90;10.65;;;8.20;99.90;;;;;;5075220;28;20443;-73
2023/11/28 12:44:19;;;;;;;16.27;10.53;;;8.20;99.90;;;;;;5074614;28;20478;-74